createdAt,value
2019-03-17T00:03:01.468Z,9.80
2019-03-17T00:08:05.343Z,9.70
2019-03-17T00:13:46.193Z,9.70
2019-03-17T00:18:50.362Z,9.80
2019-03-17T00:24:30.596Z,9.80
2019-03-17T00:29:34.875Z,9.80
2019-03-17T00:35:17.360Z,9.90
2019-03-17T00:40:23.404Z,9.90
2019-03-17T00:46:03.310Z,9.90
2019-03-17T00:51:07.332Z,9.90
2019-03-17T00:56:47.303Z,9.90
2019-03-17T01:01:54.200Z,9.90
2019-03-17T01:07:34.986Z,10.00
2019-03-17T01:12:39.123Z,10.00
2019-03-17T01:18:19.598Z,10.00
2019-03-17T01:23:24.581Z,10.00
2019-03-17T01:29:04.822Z,10.00
2019-03-17T01:34:21.547Z,9.90
2019-03-17T01:40:01.729Z,9.80
2019-03-17T01:45:05.994Z,9.80
2019-03-17T01:50:46.332Z,9.80
2019-03-17T01:55:51.511Z,9.80
2019-03-17T02:00:56.516Z,9.80
2019-03-17T02:06:19.241Z,9.90
2019-03-17T02:11:59.480Z,9.90
2019-03-17T02:17:03.533Z,9.90
2019-03-17T02:22:44.097Z,9.80
2019-03-17T02:27:48.225Z,9.90
2019-03-17T02:33:28.405Z,9.90
2019-03-17T02:38:32.577Z,9.90
2019-03-17T02:44:13.217Z,9.90
2019-03-17T02:49:16.979Z,10.00
2019-03-17T02:54:57.423Z,9.90
2019-03-17T03:00:01.573Z,10.00
2019-03-17T03:05:08.147Z,10.00
2019-03-17T03:10:12.209Z,10.10
2019-03-17T03:15:52.446Z,10.10
2019-03-17T03:20:56.620Z,10.10
2019-03-17T03:26:36.747Z,10.10
2019-03-17T03:31:40.826Z,10.10
2019-03-17T03:37:21.563Z,10.10
2019-03-17T03:42:25.625Z,10.10
2019-03-17T03:48:05.969Z,10.20
2019-03-17T03:53:10.241Z,10.20
2019-03-17T03:58:50.495Z,10.20
2019-03-17T04:03:56.476Z,10.20
2019-03-17T04:09:36.734Z,10.20
2019-03-17T04:14:40.956Z,10.20
2019-03-17T04:20:21.243Z,10.20
2019-03-17T04:25:25.479Z,10.20
2019-03-17T04:30:29.562Z,10.20
2019-03-17T04:36:09.782Z,10.20
2019-03-17T04:41:14.167Z,10.20
2019-03-17T04:46:54.710Z,10.20
2019-03-17T04:51:58.625Z,10.10
2019-03-17T04:57:39.313Z,10.20
2019-03-17T05:02:44.984Z,10.20
2019-03-17T05:08:29.595Z,10.20
2019-03-17T05:13:36.477Z,10.20
2019-03-17T05:19:16.868Z,10.10
2019-03-17T05:24:21.045Z,10.20
2019-03-17T05:30:01.960Z,10.10
2019-03-17T05:35:06.004Z,10.20
2019-03-17T05:40:11.102Z,10.20
2019-03-17T05:45:15.205Z,10.10
2019-03-17T05:50:55.529Z,10.00
2019-03-17T05:56:00.279Z,9.90
2019-03-17T06:01:41.473Z,9.70
2019-03-17T06:06:45.860Z,9.60
2019-03-17T06:12:25.678Z,9.50
2019-03-17T06:17:31.675Z,9.40
2019-03-17T06:23:12.925Z,9.30
2019-03-17T06:28:17.023Z,9.20
2019-03-17T06:33:57.100Z,9.10
2019-03-17T06:39:01.238Z,9.10
2019-03-17T06:44:41.662Z,9.20
2019-03-17T06:49:45.751Z,9.30
2019-03-17T06:55:25.864Z,9.20
2019-03-17T07:00:30.127Z,9.20
2019-03-17T07:05:35.014Z,9.20
2019-03-17T07:10:39.102Z,9.20
2019-03-17T07:16:18.736Z,9.10
2019-03-17T07:21:22.503Z,8.80
2019-03-17T07:27:02.935Z,7.60
2019-03-17T07:32:06.989Z,7.50
2019-03-17T07:37:56.834Z,7.30
2019-03-17T07:42:54.183Z,7.30
2019-03-17T07:48:34.628Z,7.30
2019-03-17T07:53:38.297Z,7.30
2019-03-17T07:59:18.826Z,7.10
2019-03-17T08:04:22.960Z,7.10
2019-03-17T08:10:02.921Z,6.90
2019-03-17T08:15:07.949Z,6.80
2019-03-17T08:20:47.634Z,6.70
2019-03-17T08:25:51.537Z,6.70
2019-03-17T08:31:31.532Z,6.50
2019-03-17T08:36:35.881Z,6.60
2019-03-17T08:42:16.450Z,6.70
2019-03-17T08:47:23.427Z,6.70
2019-03-17T08:53:04.269Z,6.90
2019-03-17T08:58:08.721Z,6.90
2019-03-17T09:03:48.951Z,7.10
2019-03-17T09:08:53.281Z,7.00
2019-03-17T09:14:33.256Z,7.00
2019-03-17T09:19:37.209Z,7.00
2019-03-17T09:25:17.467Z,7.20
2019-03-17T09:30:21.347Z,7.20
2019-03-17T09:36:01.455Z,7.20
2019-03-17T09:41:05.264Z,7.30
2019-03-17T09:46:45.348Z,7.30
2019-03-17T09:51:49.533Z,7.30
2019-03-17T09:57:29.960Z,7.40
2019-03-17T10:02:33.963Z,7.40
2019-03-17T10:07:46.215Z,7.40
2019-03-17T10:12:50.268Z,7.30
2019-03-17T10:18:30.101Z,7.50
2019-03-17T10:23:35.413Z,7.60
2019-03-17T10:29:17.682Z,7.50
2019-03-17T10:34:21.566Z,7.50
2019-03-17T10:40:01.889Z,7.50
2019-03-17T10:45:07.567Z,7.50
2019-03-17T10:50:49.725Z,7.70
2019-03-17T10:55:52.991Z,7.90
2019-03-17T11:01:33.876Z,7.90
2019-03-17T11:06:37.903Z,7.70
2019-03-17T11:12:17.868Z,7.70
2019-03-17T11:17:31.749Z,7.80
2019-03-17T11:23:12.617Z,8.00
2019-03-17T11:28:16.855Z,8.40
2019-03-17T11:33:57.130Z,9.70
2019-03-17T11:39:01.158Z,9.60
2019-03-17T11:44:43.072Z,9.60
2019-03-17T11:49:48.650Z,8.90
2019-03-17T11:55:31.652Z,8.40
2019-03-17T12:00:34.444Z,8.50
2019-03-17T12:05:38.560Z,8.90
2019-03-17T12:10:42.526Z,8.80
2019-03-17T12:16:22.809Z,8.70
2019-03-17T12:21:43.938Z,8.30
2019-03-17T12:27:24.320Z,7.40
2019-03-17T12:32:32.387Z,7.10
2019-03-17T12:38:12.613Z,7.10
2019-03-17T12:43:16.745Z,7.10
2019-03-17T12:48:58.050Z,7.10
2019-03-17T12:54:02.503Z,6.70
2019-03-17T12:59:43.687Z,9.30
2019-03-17T13:04:48.431Z,10.10
2019-03-17T13:09:53.751Z,8.60
2019-03-17T13:14:57.645Z,9.80
2019-03-17T13:20:01.674Z,11.00
2019-03-17T13:25:41.720Z,10.70
2019-03-17T13:30:47.615Z,10.70
2019-03-17T13:36:27.751Z,9.70
2019-03-17T13:41:31.666Z,9.50
2019-03-17T13:47:13.561Z,9.70
2019-03-17T13:52:17.476Z,9.80
2019-03-17T13:57:57.484Z,9.20
2019-03-17T14:03:02.363Z,8.90
2019-03-17T14:08:06.441Z,8.70
2019-03-17T14:13:10.357Z,8.50
2019-03-17T14:18:50.662Z,8.40
2019-03-17T14:23:54.677Z,8.40
2019-03-17T14:29:34.868Z,8.40
2019-03-17T14:34:39.005Z,8.30
2019-03-17T14:40:19.271Z,9.00
2019-03-17T14:45:23.326Z,9.90
2019-03-17T14:51:03.680Z,8.80
2019-03-17T14:56:07.754Z,8.30
2019-03-17T15:01:11.677Z,8.00
2019-03-17T15:06:52.222Z,7.80
2019-03-17T15:11:56.173Z,7.90
2019-03-17T15:17:36.319Z,7.80
2019-03-17T15:22:40.254Z,7.60
2019-03-17T15:28:21.030Z,8.70
2019-03-17T15:33:25.076Z,9.30
2019-03-17T15:39:05.128Z,9.70
2019-03-17T15:44:09.006Z,8.60
2019-03-17T15:49:49.336Z,8.10
2019-03-17T15:54:53.630Z,7.80
2019-03-17T16:00:33.639Z,7.70
2019-03-17T16:05:38.121Z,7.70
2019-03-17T16:10:42.112Z,7.80
2019-03-17T16:15:46.098Z,7.60
2019-03-17T16:21:26.097Z,7.40
2019-03-17T16:26:30.016Z,7.40
2019-03-17T16:32:09.995Z,7.20
2019-03-17T16:37:13.748Z,7.00
2019-03-17T16:42:54.608Z,7.30
2019-03-17T16:47:58.649Z,7.40
2019-03-17T16:59:53.899Z,7.40
2019-03-17T17:04:58.232Z,7.40
2019-03-17T17:10:02.401Z,7.30
2019-03-17T17:15:11.912Z,7.20
2019-03-17T17:20:51.996Z,7.10
2019-03-17T17:25:55.814Z,7.10
2019-03-17T17:31:36.097Z,7.10
2019-03-17T17:36:40.045Z,7.10
2019-03-17T17:42:20.089Z,7.10
2019-03-17T17:47:28.265Z,7.10
2019-03-17T17:53:05.623Z,7.20
2019-03-17T17:58:09.794Z,7.20
2019-03-17T18:03:51.789Z,7.20
2019-03-17T18:08:55.852Z,7.30
2019-03-17T18:14:05.600Z,7.20
2019-03-17T18:19:08.500Z,7.20
2019-03-17T18:24:49.057Z,7.30
2019-03-17T18:29:53.109Z,7.30
2019-03-17T18:35:33.472Z,7.20
2019-03-17T18:40:37.538Z,7.20
2019-03-17T18:46:17.451Z,7.10
2019-03-17T18:51:25.116Z,7.00
2019-03-17T18:57:05.440Z,7.00
2019-03-17T19:02:09.471Z,6.80
2019-03-17T19:07:50.257Z,6.70
2019-03-17T19:12:54.858Z,6.70
2019-03-17T19:17:58.755Z,6.70
2019-03-17T19:23:39.305Z,6.60
2019-03-17T19:28:44.383Z,6.60
2019-03-17T19:34:24.137Z,6.50
2019-03-17T19:39:27.594Z,6.50
2019-03-17T19:45:08.052Z,6.30
2019-03-17T19:50:13.414Z,6.10
2019-03-17T19:55:17.513Z,6.00
2019-03-17T20:00:21.383Z,6.00
2019-03-17T20:06:02.788Z,5.90
2019-03-17T20:11:07.407Z,5.90
2019-03-17T20:16:47.962Z,5.80
2019-03-17T20:21:52.744Z,5.80
2019-03-17T20:27:32.781Z,5.60
2019-03-17T20:32:37.055Z,5.60
2019-03-17T20:38:17.183Z,5.60
2019-03-17T20:43:34.260Z,5.60
2019-03-17T20:49:03.953Z,5.50
2019-03-17T20:54:08.245Z,5.60
2019-03-17T20:59:48.463Z,5.50
2019-03-17T21:04:54.377Z,5.50
2019-03-17T21:09:59.028Z,5.50
2019-03-17T21:15:02.908Z,5.40
2019-03-17T21:20:08.567Z,5.40
2019-03-17T21:25:48.842Z,5.40
2019-03-17T21:30:53.023Z,5.40
2019-03-17T21:36:34.173Z,5.30
2019-03-17T21:41:38.457Z,5.30
2019-03-17T21:47:18.433Z,5.30
2019-03-17T21:52:22.371Z,5.40
2019-03-17T21:58:07.563Z,5.30
2019-03-17T22:03:10.420Z,5.30
2019-03-17T22:08:50.639Z,5.30
2019-03-17T22:13:54.730Z,5.30
2019-03-17T22:18:58.943Z,5.20
2019-03-17T22:24:38.997Z,5.20
2019-03-17T22:29:43.229Z,5.20
2019-03-17T22:35:22.997Z,5.20
2019-03-17T22:40:26.866Z,5.10
2019-03-17T22:46:07.191Z,5.10
2019-03-17T22:51:11.197Z,5.10
2019-03-17T22:56:15.423Z,5.00
2019-03-17T23:01:20.914Z,5.00
2019-03-17T23:07:01.191Z,5.00
2019-03-17T23:12:05.241Z,4.90
2019-03-17T23:17:46.008Z,5.00
2019-03-17T23:22:51.174Z,5.10
2019-03-17T23:28:32.072Z,5.10
2019-03-17T23:33:36.985Z,5.10
2019-03-17T23:39:16.970Z,5.10
2019-03-17T23:44:21.013Z,5.20
2019-03-17T23:50:01.687Z,5.20
2019-03-17T23:55:06.950Z,5.20
